Samus Swan — 9HA2333 — position and weather

sailwx.info

Track history (hours):
 
Tides and Currents Weather Stations Pressure Air Temp Water Temp Dewpoint Dewpoint Depression Visibility Wind Speed Wind Dir Waves Ship Positions

Samus Swan

Last reported at 2018-Apr-22 14:05 UTC. Time now 2018-Apr-23 02:07 UTC.
Position N 48°01' W 005°32'.

Length 106 m; draft 5.3 m.

Type: Ship (hazmat cat A). MMSI: 248363000.

Date/timePositionNaut miles runAvg speedWind from/ knotsBaromVisibWave heightAir tempDewpointWater temp
2018-Apr-22 14:05N 48°01' W 005°32'110.2
2018-Apr-22 13:58N 48°00' W 005°31'510.0
2018-Apr-22 13:30N 47°56' W 005°28'5 9.7
2018-Apr-22 12:59N 47°52' W 005°25'5 9.8
2018-Apr-22 12:30N 47°47' W 005°22'510.0
2018-Apr-22 12:00N 47°44' W 005°16'510.3
2018-Apr-22 11:30N 47°41' W 005°10'510.2
2018-Apr-22 11:00N 47°37' W 005°05'510.0
2018-Apr-22 10:30N 47°34' W 004°59'510.1
2018-Apr-22 10:00N 47°31' W 004°54'510.0
2018-Apr-22 09:30N 47°27' W 004°48'510.0
2018-Apr-22 09:00N 47°24' W 004°43'8 9.9
2018-Apr-22 08:15N 47°19' W 004°34'2 9.9
2018-Apr-22 08:00N 47°17' W 004°32'510.0
2018-Apr-22 07:30N 47°14' W 004°26'5 9.8
2018-Apr-22 07:00N 47°12' W 004°19'510.0
2018-Apr-22 06:30N 47°11' W 004°12'5 9.9
2018-Apr-22 06:00N 47°10' W 004°05'5 9.7
2018-Apr-22 05:30N 47°09' W 003°58'5 9.6
2018-Apr-22 05:00N 47°08' W 003°51'5 9.7
2018-Apr-22 04:30N 47°07' W 003°44'510.3
2018-Apr-22 03:59N 47°06' W 003°37'510.9
2018-Apr-22 03:30N 47°04' W 003°29'611.0
2018-Apr-22 02:56N 47°03' W 003°20'511.3
2018-Apr-22 02:30N 47°02' W 003°13'611.7
2018-Apr-22 02:00N 47°01' W 003°05'611.5
2018-Apr-22 01:30N 46°60' W 002°56'612.2
2018-Apr-22 01:00N 47°01' W 002°48'612.5
2018-Apr-22 00:30N 47°03' W 002°39'612.5
2018-Apr-22 00:00N 47°04' W 002°30'612.3
2018-Apr-21 23:30N 47°08' W 002°22'612.1
2018-Apr-21 23:00N 47°12' W 002°17'713.7
2018-Apr-21 22:31N 47°17' W 002°10'611.6
2018-Apr-21 22:00N 47°18' W 002°01'713.8
2018-Apr-21 21:30N 47°16' W 001°52'612.3
2018-Apr-21 21:00N 47°12' W 001°44'4 8.3
2018-Apr-21 20:30N 47°12' W 001°38'0 0.0
2018-Apr-21 20:00N 47°12' W 001°38'0 0.0
2018-Apr-21 19:27N 47°12' W 001°38'0 0.0
2018-Apr-21 18:57N 47°12' W 001°38'0 0.0
2018-Apr-21 18:27N 47°12' W 001°38'0 0.0
2018-Apr-21 18:00N 47°12' W 001°38'0 0.0
2018-Apr-21 17:30N 47°12' W 001°38'0 0.0
2018-Apr-21 17:00N 47°12' W 001°38'0 0.0
2018-Apr-21 16:30N 47°12' W 001°38'0 0.0
2018-Apr-21 16:00N 47°12' W 001°38'0 0.0
2018-Apr-21 15:30N 47°12' W 001°38'0 0.0
2018-Apr-21 15:00N 47°12' W 001°38'0 0.0
2018-Apr-21 14:30N 47°12' W 001°38'0 0.0
2018-Apr-21 14:00N 47°12' W 001°38'0 0.0
2018-Apr-21 13:30N 47°12' W 001°38'0 0.0
2018-Apr-21 13:00N 47°12' W 001°38'0 0.0
2018-Apr-21 12:30N 47°12' W 001°38'0 0.0
2018-Apr-21 12:00N 47°12' W 001°38'0 0.0
2018-Apr-21 11:30N 47°12' W 001°38'0 0.0
2018-Apr-21 10:42N 47°12' W 001°38'0 0.0
2018-Apr-21 10:27N 47°12' W 001°38'0 0.0
2018-Apr-21 10:00N 47°12' W 001°38'0 0.0
2018-Apr-21 09:30N 47°12' W 001°38'0 0.0
2018-Apr-21 09:00N 47°12' W 001°38'0 0.6
2018-Apr-21 08:31N 47°12' W 001°39'5 9.0
2018-Apr-21 08:00N 47°12' W 001°45'510.4
2018-Apr-21 07:31N 47°15' W 001°51'611.6
2018-Apr-21 07:00N 47°17' W 001°59'611.6
2018-Apr-21 06:31N 47°18' W 002°08'612.2
2018-Apr-21 06:00N 47°14' W 002°15'612.5
2018-Apr-21 05:31N 47°09' W 002°20'3 6.4
2018-Apr-21 05:01N 47°08' W 002°24'1 2.0
2018-Apr-21 04:29N 47°07' W 002°25'0 0.0
2018-Apr-21 03:59N 47°07' W 002°25'0 0.0
2018-Apr-21 03:29N 47°07' W 002°25'0 0.0
2018-Apr-21 02:59N 47°07' W 002°25'0 0.1
2018-Apr-21 02:29N 47°07' W 002°25'0 0.1
2018-Apr-21 02:00N 47°07' W 002°25'2 3.2
2018-Apr-21 01:31N 47°06' W 002°26'611.1
2018-Apr-21 01:01N 47°02' W 002°32'510.6
2018-Apr-21 00:30N 46°60' W 002°39'4 8.9
2018-Apr-21 00:00N 46°60' W 002°46'4 9.0
2018-Apr-20 23:30N 47°01' W 002°52'31 9.4
2018-Apr-20 20:12N 47°09' W 003°36'210.6
2018-Apr-20 20:00N 47°10' W 003°39'610.7
2018-Apr-20 19:30N 47°12' W 003°46'2110.7
2018-Apr-20 17:32N 47°22' W 004°14'110.5
2018-Apr-20 17:29N 47°22' W 004°14'42 9.8
2018-Apr-20 13:09N 47°42' W 005°10'2 9.8
2018-Apr-20 12:58N 47°43' W 005°12'1411.9
2018-Apr-20 11:48N 47°57' W 005°19'413.3
2018-Apr-20 11:30N 48°00' W 005°20'713.2
2018-Apr-20 11:00N 48°05' W 005°13'612.8
2018-Apr-20 10:31N 48°09' W 005°06'612.3
2018-Apr-20 10:01N 48°13' W 004°58'612.1
2018-Apr-20 09:30N 48°16' W 004°50'612.3
2018-Apr-20 09:00N 48°17' W 004°41'612.3
2018-Apr-20 08:31N 48°21' W 004°33'4 7.7
2018-Apr-20 08:00N 48°23' W 004°28'0 0.0
2018-Apr-20 07:30N 48°23' W 004°28'0 0.0
2018-Apr-20 07:00N 48°23' W 004°28'0 0.0
2018-Apr-20 06:30N 48°23' W 004°28'0 0.0
2018-Apr-20 06:00N 48°23' W 004°28'0 0.0
2018-Apr-20 05:30N 48°23' W 004°28'0 0.0
2018-Apr-20 05:00N 48°23' W 004°28'0 0.0
2018-Apr-20 04:30N 48°23' W 004°28'0 0.0
2018-Apr-20 04:00N 48°23' W 004°28'0 0.0
2018-Apr-20 03:30N 48°23' W 004°28'0 0.0
2018-Apr-20 03:00N 48°23' W 004°28'0 0.0
2018-Apr-20 02:30N 48°23' W 004°28'0 0.0
2018-Apr-20 02:00N 48°23' W 004°28'0 0.0
2018-Apr-20 01:30N 48°23' W 004°28'0 0.0
2018-Apr-20 01:00N 48°23' W 004°28'0 0.0
2018-Apr-20 00:30N 48°23' W 004°28'0 0.0
2018-Apr-20 00:00N 48°23' W 004°28'0 0.0
2018-Apr-19 23:30N 48°23' W 004°28'0 0.0
2018-Apr-19 23:00N 48°23' W 004°28'0 0.0
2018-Apr-19 22:30N 48°23' W 004°28'0 0.0
2018-Apr-19 22:00N 48°23' W 004°28'0 0.0
2018-Apr-19 21:30N 48°23' W 004°28'0 0.0
2018-Apr-19 21:00N 48°23' W 004°28'0 0.0
2018-Apr-19 20:30N 48°23' W 004°28'0 0.0
2018-Apr-19 20:00N 48°23' W 004°28'0 0.0
2018-Apr-19 19:30N 48°23' W 004°28'0 0.0
2018-Apr-19 19:00N 48°23' W 004°28'0 0.0
2018-Apr-19 18:30N 48°23' W 004°28'0 0.2
2018-Apr-19 18:00N 48°23' W 004°28'1 2.0
2018-Apr-19 17:30N 48°22' W 004°29'510.2
2018-Apr-19 17:00N 48°20' W 004°36'510.6
2018-Apr-19 16:30N 48°18' W 004°43'611.8
2018-Apr-19 16:00N 48°16' W 004°52'611.0
2018-Apr-19 15:30N 48°16' W 005°00'611.0
2018-Apr-19 15:00N 48°18' W 005°08'2011.0
2018-Apr-19 13:08N 48°23' W 005°38'60 7.9
2018-Apr-19 05:33N 49°15' W 004°53'3 9.0
2018-Apr-19 05:14N 49°16' W 004°49'2 9.0
2018-Apr-19 05:00N 49°17' W 004°46'5 9.0
2018-Apr-19 04:29N 49°20' W 004°40'5 9.7
2018-Apr-19 04:00N 49°22' W 004°34'610.4
2018-Apr-19 03:27N 49°25' W 004°26'711.0
2018-Apr-19 02:49N 49°29' W 004°18'1112.0
2018-Apr-19 01:55N 49°35' W 004°03'812.7
2018-Apr-19 01:18N 49°39' W 003°53'412.6
2018-Apr-19 01:00N 49°41' W 003°48'612.6
2018-Apr-19 00:30N 49°44' W 003°39'612.2
2018-Apr-19 00:01N 49°47' W 003°31'611.7
2018-Apr-18 23:30N 49°50' W 003°23'511.0
2018-Apr-18 23:00N 49°52' W 003°16'5 9.8
2018-Apr-18 22:29N 49°55' W 003°09'4 9.2
2018-Apr-18 22:00N 49°57' W 003°03'4 8.8
2018-Apr-18 21:30N 49°59' W 002°57'4 8.3
2018-Apr-18 21:00N 50°00' W 002°51'4 8.5
2018-Apr-18 20:30N 50°01' W 002°44'4 8.6
2018-Apr-18 20:00N 50°02' W 002°38'5 9.1
2018-Apr-18 19:30N 50°03' W 002°31'2111.0
2018-Apr-18 17:36N 50°09' W 001°59'113.4
2018-Apr-18 17:30N 50°09' W 001°57'714.1
2018-Apr-18 17:01N 50°11' W 001°47'714.9
2018-Apr-18 16:30N 50°13' W 001°36'815.4
2018-Apr-18 16:00N 50°15' W 001°24'815.6
2018-Apr-18 15:30N 50°17' W 001°12'815.7
2018-Apr-18 15:00N 50°19' W 001°00'814.9
2018-Apr-18 14:29N 50°21' W 000°49'1313.7
2018-Apr-18 13:33N 50°24' W 000°29'113.0
2018-Apr-18 13:30N 50°24' W 000°28'612.5
2018-Apr-18 13:00N 50°26' W 000°19'611.7
2018-Apr-18 12:30N 50°27' W 000°10'510.8
2018-Apr-18 12:00N 50°29' W 000°02'511.0
2018-Apr-18 11:30N 50°30' E 000°07'510.4
2018-Apr-18 11:00N 50°32' E 000°15'4 9.1
2018-Apr-18 10:30N 50°33' E 000°22'5 9.2
2018-Apr-18 10:00N 50°34' E 000°28'5 9.5
2018-Apr-18 09:30N 50°36' E 000°35'510.1
2018-Apr-18 09:00N 50°38' E 000°42'611.5
2018-Apr-18 08:30N 50°42' E 000°50'612.5
2018-Apr-18 08:00N 50°46' E 000°57'913.0
2018-Apr-18 07:19N 50°50' E 001°10'613.5
2018-Apr-18 06:53N 50°54' E 001°17'513.7
2018-Apr-18 06:29N 50°58' E 001°23'613.0
2018-Apr-18 06:00N 51°03' E 001°29'611.7
2018-Apr-18 05:30N 51°07' E 001°36'611.3
2018-Apr-18 05:00N 51°11' E 001°42'510.6
2018-Apr-18 04:30N 51°15' E 001°47'5 9.9
2018-Apr-18 04:00N 51°20' E 001°50'5 9.4
2018-Apr-18 03:30N 51°24' E 001°54'5 9.3
2018-Apr-18 03:00N 51°28' E 001°58'5 9.4
2018-Apr-18 02:30N 51°31' E 002°03'5 9.6
2018-Apr-18 02:00N 51°34' E 002°09'510.0
2018-Apr-18 01:29N 51°38' E 002°14'510.5
2018-Apr-18 01:00N 51°42' E 002°19'5111.5
2018-Apr-17 20:37N 52°04' E 003°34'212.8
2018-Apr-17 20:29N 52°04' E 003°36'612.5
2018-Apr-17 20:00N 52°04' E 003°46'611.4
2018-Apr-17 19:30N 52°02' E 003°55'510.0
2018-Apr-17 19:00N 51°60' E 004°02'612.1
2018-Apr-17 18:30N 51°57' E 004°11'612.2
2018-Apr-17 18:00N 51°54' E 004°19'1 1.6
2018-Apr-17 17:25N 51°54' E 004°20'0 0.0
2018-Apr-17 16:58N 51°54' E 004°20'0 0.0
2018-Apr-17 16:19N 51°54' E 004°20'0 0.0
2018-Apr-17 15:58N 51°54' E 004°20'0 0.0
2018-Apr-17 04:49N 51°54' E 004°20'0 0.0
2018-Apr-17 04:25N 51°54' E 004°20'0 0.0
2018-Apr-17 03:37N 51°54' E 004°20'0 0.0
2018-Apr-17 03:28N 51°54' E 004°20'0 0.0
2018-Apr-17 02:58N 51°54' E 004°20'0 0.0
2018-Apr-17 02:28N 51°54' E 004°20'0 0.0
2018-Apr-17 01:58N 51°54' E 004°20'0 0.0
2018-Apr-17 01:28N 51°54' E 004°20'0 0.0
2018-Apr-17 00:58N 51°54' E 004°20'0 0.0
2018-Apr-17 00:28N 51°54' E 004°20'0 0.0
2018-Apr-16 23:58N 51°54' E 004°20'0 0.0
2018-Apr-16 23:28N 51°54' E 004°20'0 0.0
2018-Apr-16 23:00N 51°54' E 004°20'0 0.6
2018-Apr-16 22:30N 51°53' E 004°21'3 6.3
2018-Apr-16 22:00N 51°54' E 004°16'5 9.2
2018-Apr-16 21:30N 51°57' E 004°10'5 9.1
2018-Apr-16 21:00N 51°59' E 004°04'5 9.5
2018-Apr-16 20:30N 51°60' E 003°56'510.2
2018-Apr-16 20:00N 51°59' E 003°48'4 8.4
2018-Apr-16 19:29N 51°58' E 003°41'4 9.2
2018-Apr-16 19:00N 51°56' E 003°34'3 5.3
2018-Apr-16 18:27N 51°53' E 003°32'0 0.0
2018-Apr-16 17:51N 51°53' E 003°32'0 0.0
2018-Apr-16 17:27N 51°53' E 003°32'0 0.0
2018-Apr-16 17:00N 51°53' E 003°32'0 0.0
2018-Apr-16 16:27N 51°53' E 003°32'0 0.0
2018-Apr-16 15:57N 51°53' E 003°32'0 0.0
2018-Apr-16 15:15N 51°53' E 003°32'0 0.0
2018-Apr-16 14:57N 51°53' E 003°32'0 0.0
2018-Apr-16 14:27N 51°53' E 003°32'0 0.0
2018-Apr-16 13:51N 51°53' E 003°32'0 0.0
2018-Apr-16 13:27N 51°53' E 003°32'0 0.0
2018-Apr-16 13:00N 51°53' E 003°32'0 0.0
2018-Apr-16 12:27N 51°53' E 003°33'0 0.0
2018-Apr-16 11:48N 51°53' E 003°32'0 0.1
2018-Apr-16 11:21N 51°53' E 003°32'0 0.1
2018-Apr-16 10:54N 51°53' E 003°32'0 0.0
2018-Apr-16 04:33N 51°53' E 003°32'0 0.1
2018-Apr-16 03:08N 51°53' E 003°32'2 5.1
2018-Apr-16 02:40N 51°56' E 003°33'311.0
2018-Apr-16 02:26N 51°56' E 003°29'512.7
2018-Apr-16 02:00N 51°54' E 003°20'611.9
2018-Apr-16 01:29N 51°53' E 003°10'23 2.9
2018-Apr-15 17:19N 51°46' E 002°34'310.3
2018-Apr-15 17:00N 51°43' E 002°31'510.5
2018-Apr-15 16:28N 51°38' E 002°26'510.8
2018-Apr-15 16:00N 51°34' E 002°21'611.9
2018-Apr-15 15:30N 51°30' E 002°15'711.8
2018-Apr-15 14:56N 51°23' E 002°11'410.2
2018-Apr-15 14:31N 51°20' E 002°16'510.2
2018-Apr-15 14:00N 51°21' E 002°24'4 8.1
2018-Apr-15 13:30N 51°23' E 002°30'5 9.1
2018-Apr-15 13:00N 51°23' E 002°38'4 9.0
2018-Apr-15 12:30N 51°22' E 002°45'5 9.1
2018-Apr-15 12:00N 51°23' E 002°52'510.5
2018-Apr-15 11:30N 51°24' E 003°00'510.1
2018-Apr-15 11:00N 51°24' E 003°08'510.0
2018-Apr-15 10:30N 51°25' E 003°16'510.8
2018-Apr-15 10:00N 51°25' E 003°25'611.0
2018-Apr-15 09:30N 51°25' E 003°34'4 8.9
2018-Apr-15 09:00N 51°25' E 003°41'611.7
2018-Apr-15 08:29N 51°21' E 003°48'1 2.7
2018-Apr-15 08:01N 51°20' E 003°49'2 3.3
2018-Apr-15 07:31N 51°18' E 003°50'4 7.4
2018-Apr-15 07:01N 51°14' E 003°49'4 7.3
2018-Apr-15 06:31N 51°11' E 003°48'3 6.0
2018-Apr-15 06:00N 51°08' E 003°46'0 0.0
2018-Apr-15 05:30N 51°08' E 003°46'0 0.0
2018-Apr-15 05:00N 51°08' E 003°46'0 0.0
2018-Apr-15 04:30N 51°08' E 003°46'0 0.0
2018-Apr-15 04:00N 51°08' E 003°46'0 0.0
2018-Apr-15 03:30N 51°08' E 003°46'0 0.0
2018-Apr-15 03:00N 51°08' E 003°46'0 0.0
2018-Apr-15 02:30N 51°08' E 003°46'0 0.0
2018-Apr-15 02:00N 51°08' E 003°46'0 0.0
2018-Apr-15 01:30N 51°08' E 003°46'0 0.0
2018-Apr-15 01:00N 51°08' E 003°46'0 0.0
2018-Apr-15 00:30N 51°08' E 003°46'0 0.0
2018-Apr-15 00:00N 51°08' E 003°46'0 0.0
2018-Apr-14 23:30N 51°08' E 003°46'0 0.0
2018-Apr-14 23:00N 51°08' E 003°46'0 0.0
2018-Apr-14 22:30N 51°08' E 003°46'0 0.0
2018-Apr-14 22:00N 51°08' E 003°46'0 0.0
2018-Apr-14 21:30N 51°08' E 003°46'0 0.0
2018-Apr-14 21:00N 51°08' E 003°46'0 0.0
2018-Apr-14 20:30N 51°08' E 003°46'0 0.0
2018-Apr-14 20:00N 51°08' E 003°46'0 0.0
2018-Apr-14 19:30N 51°08' E 003°46'0 0.0
2018-Apr-14 19:00N 51°08' E 003°46'0 0.0
2018-Apr-14 18:30N 51°08' E 003°46'0 0.0
2018-Apr-14 18:00N 51°08' E 003°46'0 0.0
2018-Apr-14 17:30N 51°08' E 003°46'0 0.0
2018-Apr-14 17:00N 51°08' E 003°46'0 0.0
2018-Apr-14 16:30N 51°08' E 003°46'0 0.0
2018-Apr-14 16:00N 51°08' E 003°46'0 0.0
2018-Apr-14 15:30N 51°08' E 003°46'0 0.0
2018-Apr-14 15:00N 51°08' E 003°46'0 0.0
2018-Apr-14 14:30N 51°08' E 003°46'0 0.0
2018-Apr-14 14:00N 51°08' E 003°46'0 0.0
2018-Apr-14 13:30N 51°08' E 003°46'0 0.0
2018-Apr-14 13:00N 51°08' E 003°46'0 0.0
2018-Apr-14 12:30N 51°08' E 003°46'0 0.0
2018-Apr-14 12:00N 51°08' E 003°46'0 0.0
2018-Apr-14 11:30N 51°08' E 003°46'0 0.0
2018-Apr-14 11:00N 51°08' E 003°46'0 0.0
2018-Apr-14 10:30N 51°08' E 003°46'0 0.0
2018-Apr-14 10:00N 51°08' E 003°46'0 0.0
2018-Apr-14 09:30N 51°08' E 003°46'0 0.0
2018-Apr-14 09:00N 51°08' E 003°46'0 0.0
2018-Apr-14 08:30N 51°08' E 003°46'0 0.0
2018-Apr-14 08:00N 51°08' E 003°46'0 0.0
2018-Apr-14 07:30N 51°08' E 003°46'0 0.0
2018-Apr-14 07:00N 51°08' E 003°46'0 0.0
2018-Apr-14 06:30N 51°08' E 003°46'0 0.0
2018-Apr-14 06:00N 51°08' E 003°46'0 0.0
2018-Apr-14 05:30N 51°08' E 003°46'0 0.0
2018-Apr-14 05:00N 51°08' E 003°46'0 0.0
2018-Apr-14 04:30N 51°08' E 003°46'0 0.0
2018-Apr-14 04:00N 51°08' E 003°46'0 0.0
2018-Apr-14 03:30N 51°08' E 003°46'0 0.0
2018-Apr-14 03:00N 51°08' E 003°46'0 0.0
2018-Apr-14 02:30N 51°08' E 003°46'0 0.0
2018-Apr-14 02:00N 51°08' E 003°46'0 0.0
2018-Apr-14 01:30N 51°08' E 003°46'0 0.0
2018-Apr-14 01:00N 51°08' E 003°46'0 0.0
2018-Apr-14 00:30N 51°08' E 003°46'0 0.0
2018-Apr-14 00:00N 51°08' E 003°46'0 0.0
2018-Apr-13 23:30N 51°08' E 003°46'0 0.0
2018-Apr-13 23:00N 51°08' E 003°46'0 0.0
2018-Apr-13 22:30N 51°08' E 003°46'0 0.0
2018-Apr-13 21:59N 51°08' E 003°46'0 0.0
2018-Apr-13 21:30N 51°08' E 003°46'0 0.0
2018-Apr-13 21:00N 51°08' E 003°46'0 0.0
2018-Apr-13 20:30N 51°08' E 003°46'0 0.0
2018-Apr-13 20:00N 51°08' E 003°46'0 0.0
2018-Apr-13 19:30N 51°08' E 003°46'0 0.0
2018-Apr-13 19:00N 51°08' E 003°46'0 0.0
2018-Apr-13 18:27N 51°08' E 003°46'0 0.0
2018-Apr-13 18:00N 51°08' E 003°46'0 0.2
2018-Apr-13 17:30N 51°08' E 003°46'4 8.4
2018-Apr-13 17:00N 51°12' E 003°48'4 8.6
2018-Apr-13 16:30N 51°16' E 003°50'4 7.4
2018-Apr-13 16:01N 51°20' E 003°49'1 0.9
2018-Apr-13 15:00N 51°21' E 003°49'4 8.8
2018-Apr-13 14:30N 51°22' E 003°55'4 7.3
2018-Apr-13 14:00N 51°25' E 003°58'6 6.1
2018-Apr-13 13:00N 51°22' E 004°06'4 8.3
2018-Apr-13 12:30N 51°24' E 004°12'4 8.9
2018-Apr-13 12:00N 51°21' E 004°17'3 1.4
2018-Apr-13 10:00N 51°18' E 004°19'4 3.8
2018-Apr-13 09:00N 51°15' E 004°23'0 0.0
2018-Apr-13 08:30N 51°15' E 004°23'0 0.0
2018-Apr-13 08:00N 51°15' E 004°23'0 0.0
2018-Apr-13 07:30N 51°15' E 004°23'0 0.0
2018-Apr-13 07:00N 51°15' E 004°23'0 0.0
2018-Apr-13 06:30N 51°15' E 004°23'0 0.0
2018-Apr-13 05:57N 51°15' E 004°23'0 0.0
2018-Apr-13 05:30N 51°15' E 004°23'0 0.0
2018-Apr-13 05:00N 51°15' E 004°23'0 0.0
2018-Apr-13 04:27N 51°15' E 004°23'0 0.0
2018-Apr-13 04:00N 51°15' E 004°23'0 0.0
2018-Apr-13 03:30N 51°15' E 004°23'0 0.0
2018-Apr-13 03:00N 51°15' E 004°23'0 0.0
2018-Apr-13 02:30N 51°15' E 004°23'0 0.0
2018-Apr-13 02:00N 51°15' E 004°23'0 0.0
2018-Apr-13 01:30N 51°15' E 004°23'0 0.0
2018-Apr-13 01:00N 51°15' E 004°23'0 0.0
2018-Apr-13 00:30N 51°15' E 004°23'0 0.0
2018-Apr-13 00:00N 51°15' E 004°23'0 0.0
2018-Apr-12 23:30N 51°15' E 004°23'0 0.0
2018-Apr-12 23:00N 51°15' E 004°23'0 0.0
2018-Apr-12 22:30N 51°15' E 004°23'0 0.0
2018-Apr-12 22:00N 51°15' E 004°23'0 0.0
2018-Apr-12 21:30N 51°15' E 004°23'0 0.0
2018-Apr-12 21:00N 51°15' E 004°23'0 0.0
2018-Apr-12 20:30N 51°15' E 004°23'0 0.0
2018-Apr-12 20:00N 51°15' E 004°23'0 0.0
2018-Apr-12 19:30N 51°15' E 004°23'0 0.0
2018-Apr-12 19:00N 51°15' E 004°23'0 0.0
2018-Apr-12 18:30N 51°15' E 004°23'0 0.0
2018-Apr-12 18:00N 51°15' E 004°23'0 0.0
2018-Apr-12 17:30N 51°15' E 004°23'0 0.0
2018-Apr-12 17:00N 51°15' E 004°23'0 0.0
2018-Apr-12 16:30N 51°15' E 004°23'0 0.0
2018-Apr-12 16:00N 51°15' E 004°23'0 0.0
2018-Apr-12 15:30N 51°15' E 004°23'0 0.0
2018-Apr-12 15:00N 51°15' E 004°23'0 0.0
2018-Apr-12 14:30N 51°15' E 004°23'  
Track history (hours):
 
Tides and Currents Weather Stations Pressure Air Temp Water Temp Dewpoint Dewpoint Depression Visibility Wind Speed Wind Dir Waves Ship Positions

Samus Swan

Last reported at 2018-Apr-22 14:05 UTC. Time now 2018-Apr-23 02:07 UTC.
Position N 48°01' W 005°32'.

Length 106 m; draft 5.3 m.

Type: Ship (hazmat cat A). MMSI: 248363000.

Date/timePositionNaut miles runAvg speedWind from/ knotsBaromVisibWave heightAir tempDewpointWater temp
2018-Apr-22 14:05N 48°01' W 005°32'110.2
2018-Apr-22 13:58N 48°00' W 005°31'510.0
2018-Apr-22 13:30N 47°56' W 005°28'5 9.7
2018-Apr-22 12:59N 47°52' W 005°25'5 9.8
2018-Apr-22 12:30N 47°47' W 005°22'510.0
2018-Apr-22 12:00N 47°44' W 005°16'510.3
2018-Apr-22 11:30N 47°41' W 005°10'510.2
2018-Apr-22 11:00N 47°37' W 005°05'510.0
2018-Apr-22 10:30N 47°34' W 004°59'510.1
2018-Apr-22 10:00N 47°31' W 004°54'510.0
2018-Apr-22 09:30N 47°27' W 004°48'510.0
2018-Apr-22 09:00N 47°24' W 004°43'8 9.9
2018-Apr-22 08:15N 47°19' W 004°34'2 9.9
2018-Apr-22 08:00N 47°17' W 004°32'510.0
2018-Apr-22 07:30N 47°14' W 004°26'5 9.8
2018-Apr-22 07:00N 47°12' W 004°19'510.0
2018-Apr-22 06:30N 47°11' W 004°12'5 9.9
2018-Apr-22 06:00N 47°10' W 004°05'5 9.7
2018-Apr-22 05:30N 47°09' W 003°58'5 9.6
2018-Apr-22 05:00N 47°08' W 003°51'5 9.7
2018-Apr-22 04:30N 47°07' W 003°44'510.3
2018-Apr-22 03:59N 47°06' W 003°37'510.9
2018-Apr-22 03:30N 47°04' W 003°29'611.0
2018-Apr-22 02:56N 47°03' W 003°20'511.3
2018-Apr-22 02:30N 47°02' W 003°13'611.7
2018-Apr-22 02:00N 47°01' W 003°05'611.5
2018-Apr-22 01:30N 46°60' W 002°56'612.2
2018-Apr-22 01:00N 47°01' W 002°48'612.5
2018-Apr-22 00:30N 47°03' W 002°39'612.5
2018-Apr-22 00:00N 47°04' W 002°30'612.3
2018-Apr-21 23:30N 47°08' W 002°22'612.1
2018-Apr-21 23:00N 47°12' W 002°17'713.7
2018-Apr-21 22:31N 47°17' W 002°10'611.6
2018-Apr-21 22:00N 47°18' W 002°01'713.8
2018-Apr-21 21:30N 47°16' W 001°52'612.3
2018-Apr-21 21:00N 47°12' W 001°44'4 8.3
2018-Apr-21 20:30N 47°12' W 001°38'0 0.0
2018-Apr-21 20:00N 47°12' W 001°38'0 0.0
2018-Apr-21 19:27N 47°12' W 001°38'0 0.0
2018-Apr-21 18:57N 47°12' W 001°38'0 0.0
2018-Apr-21 18:27N 47°12' W 001°38'0 0.0
2018-Apr-21 18:00N 47°12' W 001°38'0 0.0
2018-Apr-21 17:30N 47°12' W 001°38'0 0.0
2018-Apr-21 17:00N 47°12' W 001°38'0 0.0
2018-Apr-21 16:30N 47°12' W 001°38'0 0.0
2018-Apr-21 16:00N 47°12' W 001°38'0 0.0
2018-Apr-21 15:30N 47°12' W 001°38'0 0.0
2018-Apr-21 15:00N 47°12' W 001°38'0 0.0
2018-Apr-21 14:30N 47°12' W 001°38'0 0.0
2018-Apr-21 14:00N 47°12' W 001°38'0 0.0
2018-Apr-21 13:30N 47°12' W 001°38'0 0.0
2018-Apr-21 13:00N 47°12' W 001°38'0 0.0
2018-Apr-21 12:30N 47°12' W 001°38'0 0.0
2018-Apr-21 12:00N 47°12' W 001°38'0 0.0
2018-Apr-21 11:30N 47°12' W 001°38'0 0.0
2018-Apr-21 10:42N 47°12' W 001°38'0 0.0
2018-Apr-21 10:27N 47°12' W 001°38'0 0.0
2018-Apr-21 10:00N 47°12' W 001°38'0 0.0
2018-Apr-21 09:30N 47°12' W 001°38'0 0.0
2018-Apr-21 09:00N 47°12' W 001°38'0 0.6
2018-Apr-21 08:31N 47°12' W 001°39'5 9.0
2018-Apr-21 08:00N 47°12' W 001°45'510.4
2018-Apr-21 07:31N 47°15' W 001°51'611.6
2018-Apr-21 07:00N 47°17' W 001°59'611.6
2018-Apr-21 06:31N 47°18' W 002°08'612.2
2018-Apr-21 06:00N 47°14' W 002°15'612.5
2018-Apr-21 05:31N 47°09' W 002°20'3 6.4
2018-Apr-21 05:01N 47°08' W 002°24'1 2.0
2018-Apr-21 04:29N 47°07' W 002°25'0 0.0
2018-Apr-21 03:59N 47°07' W 002°25'0 0.0
2018-Apr-21 03:29N 47°07' W 002°25'0 0.0
2018-Apr-21 02:59N 47°07' W 002°25'0 0.1
2018-Apr-21 02:29N 47°07' W 002°25'0 0.1
2018-Apr-21 02:00N 47°07' W 002°25'2 3.2
2018-Apr-21 01:31N 47°06' W 002°26'611.1
2018-Apr-21 01:01N 47°02' W 002°32'510.6
2018-Apr-21 00:30N 46°60' W 002°39'4 8.9
2018-Apr-21 00:00N 46°60' W 002°46'4 9.0
2018-Apr-20 23:30N 47°01' W 002°52'31 9.4
2018-Apr-20 20:12N 47°09' W 003°36'210.6
2018-Apr-20 20:00N 47°10' W 003°39'610.7
2018-Apr-20 19:30N 47°12' W 003°46'2110.7
2018-Apr-20 17:32N 47°22' W 004°14'110.5
2018-Apr-20 17:29N 47°22' W 004°14'42 9.8
2018-Apr-20 13:09N 47°42' W 005°10'2 9.8
2018-Apr-20 12:58N 47°43' W 005°12'1411.9
2018-Apr-20 11:48N 47°57' W 005°19'413.3
2018-Apr-20 11:30N 48°00' W 005°20'713.2
2018-Apr-20 11:00N 48°05' W 005°13'612.8
2018-Apr-20 10:31N 48°09' W 005°06'612.3
2018-Apr-20 10:01N 48°13' W 004°58'612.1
2018-Apr-20 09:30N 48°16' W 004°50'612.3
2018-Apr-20 09:00N 48°17' W 004°41'612.3
2018-Apr-20 08:31N 48°21' W 004°33'4 7.7
2018-Apr-20 08:00N 48°23' W 004°28'0 0.0
2018-Apr-20 07:30N 48°23' W 004°28'0 0.0
2018-Apr-20 07:00N 48°23' W 004°28'0 0.0
2018-Apr-20 06:30N 48°23' W 004°28'0 0.0
2018-Apr-20 06:00N 48°23' W 004°28'0 0.0
2018-Apr-20 05:30N 48°23' W 004°28'0 0.0
2018-Apr-20 05:00N 48°23' W 004°28'0 0.0
2018-Apr-20 04:30N 48°23' W 004°28'0 0.0
2018-Apr-20 04:00N 48°23' W 004°28'0 0.0
2018-Apr-20 03:30N 48°23' W 004°28'0 0.0
2018-Apr-20 03:00N 48°23' W 004°28'0 0.0
2018-Apr-20 02:30N 48°23' W 004°28'0 0.0
2018-Apr-20 02:00N 48°23' W 004°28'0 0.0
2018-Apr-20 01:30N 48°23' W 004°28'0 0.0
2018-Apr-20 01:00N 48°23' W 004°28'0 0.0
2018-Apr-20 00:30N 48°23' W 004°28'0 0.0
2018-Apr-20 00:00N 48°23' W 004°28'0 0.0
2018-Apr-19 23:30N 48°23' W 004°28'0 0.0
2018-Apr-19 23:00N 48°23' W 004°28'0 0.0
2018-Apr-19 22:30N 48°23' W 004°28'0 0.0
2018-Apr-19 22:00N 48°23' W 004°28'0 0.0
2018-Apr-19 21:30N 48°23' W 004°28'0 0.0
2018-Apr-19 21:00N 48°23' W 004°28'0 0.0
2018-Apr-19 20:30N 48°23' W 004°28'0 0.0
2018-Apr-19 20:00N 48°23' W 004°28'0 0.0
2018-Apr-19 19:30N 48°23' W 004°28'0 0.0
2018-Apr-19 19:00N 48°23' W 004°28'0 0.0
2018-Apr-19 18:30N 48°23' W 004°28'0 0.2
2018-Apr-19 18:00N 48°23' W 004°28'1 2.0
2018-Apr-19 17:30N 48°22' W 004°29'510.2
2018-Apr-19 17:00N 48°20' W 004°36'510.6
2018-Apr-19 16:30N 48°18' W 004°43'611.8
2018-Apr-19 16:00N 48°16' W 004°52'611.0
2018-Apr-19 15:30N 48°16' W 005°00'611.0
2018-Apr-19 15:00N 48°18' W 005°08'2011.0
2018-Apr-19 13:08N 48°23' W 005°38'60 7.9
2018-Apr-19 05:33N 49°15' W 004°53'3 9.0
2018-Apr-19 05:14N 49°16' W 004°49'2 9.0
2018-Apr-19 05:00N 49°17' W 004°46'5 9.0
2018-Apr-19 04:29N 49°20' W 004°40'5 9.7
2018-Apr-19 04:00N 49°22' W 004°34'610.4
2018-Apr-19 03:27N 49°25' W 004°26'711.0
2018-Apr-19 02:49N 49°29' W 004°18'1112.0
2018-Apr-19 01:55N 49°35' W 004°03'812.7
2018-Apr-19 01:18N 49°39' W 003°53'412.6
2018-Apr-19 01:00N 49°41' W 003°48'612.6
2018-Apr-19 00:30N 49°44' W 003°39'612.2
2018-Apr-19 00:01N 49°47' W 003°31'611.7
2018-Apr-18 23:30N 49°50' W 003°23'511.0
2018-Apr-18 23:00N 49°52' W 003°16'5 9.8
2018-Apr-18 22:29N 49°55' W 003°09'4 9.2
2018-Apr-18 22:00N 49°57' W 003°03'4 8.8
2018-Apr-18 21:30N 49°59' W 002°57'4 8.3
2018-Apr-18 21:00N 50°00' W 002°51'4 8.5
2018-Apr-18 20:30N 50°01' W 002°44'4 8.6
2018-Apr-18 20:00N 50°02' W 002°38'5 9.1
2018-Apr-18 19:30N 50°03' W 002°31'2111.0
2018-Apr-18 17:36N 50°09' W 001°59'113.4
2018-Apr-18 17:30N 50°09' W 001°57'714.1
2018-Apr-18 17:01N 50°11' W 001°47'714.9
2018-Apr-18 16:30N 50°13' W 001°36'815.4
2018-Apr-18 16:00N 50°15' W 001°24'815.6
2018-Apr-18 15:30N 50°17' W 001°12'815.7
2018-Apr-18 15:00N 50°19' W 001°00'814.9
2018-Apr-18 14:29N 50°21' W 000°49'1313.7
2018-Apr-18 13:33N 50°24' W 000°29'113.0
2018-Apr-18 13:30N 50°24' W 000°28'612.5
2018-Apr-18 13:00N 50°26' W 000°19'611.7
2018-Apr-18 12:30N 50°27' W 000°10'510.8
2018-Apr-18 12:00N 50°29' W 000°02'511.0
2018-Apr-18 11:30N 50°30' E 000°07'510.4
2018-Apr-18 11:00N 50°32' E 000°15'4 9.1
2018-Apr-18 10:30N 50°33' E 000°22'5 9.2
2018-Apr-18 10:00N 50°34' E 000°28'5 9.5
2018-Apr-18 09:30N 50°36' E 000°35'510.1
2018-Apr-18 09:00N 50°38' E 000°42'611.5
2018-Apr-18 08:30N 50°42' E 000°50'612.5
2018-Apr-18 08:00N 50°46' E 000°57'913.0
2018-Apr-18 07:19N 50°50' E 001°10'613.5
2018-Apr-18 06:53N 50°54' E 001°17'513.7
2018-Apr-18 06:29N 50°58' E 001°23'613.0
2018-Apr-18 06:00N 51°03' E 001°29'611.7
2018-Apr-18 05:30N 51°07' E 001°36'611.3
2018-Apr-18 05:00N 51°11' E 001°42'510.6
2018-Apr-18 04:30N 51°15' E 001°47'5 9.9
2018-Apr-18 04:00N 51°20' E 001°50'5 9.4
2018-Apr-18 03:30N 51°24' E 001°54'5 9.3
2018-Apr-18 03:00N 51°28' E 001°58'5 9.4
2018-Apr-18 02:30N 51°31' E 002°03'5 9.6
2018-Apr-18 02:00N 51°34' E 002°09'510.0
2018-Apr-18 01:29N 51°38' E 002°14'510.5
2018-Apr-18 01:00N 51°42' E 002°19'5111.5
2018-Apr-17 20:37N 52°04' E 003°34'212.8
2018-Apr-17 20:29N 52°04' E 003°36'612.5
2018-Apr-17 20:00N 52°04' E 003°46'611.4
2018-Apr-17 19:30N 52°02' E 003°55'510.0
2018-Apr-17 19:00N 51°60' E 004°02'612.1
2018-Apr-17 18:30N 51°57' E 004°11'612.2
2018-Apr-17 18:00N 51°54' E 004°19'1 1.6
2018-Apr-17 17:25N 51°54' E 004°20'0 0.0
2018-Apr-17 16:58N 51°54' E 004°20'0 0.0
2018-Apr-17 16:19N 51°54' E 004°20'0 0.0
2018-Apr-17 15:58N 51°54' E 004°20'0 0.0
2018-Apr-17 04:49N 51°54' E 004°20'0 0.0
2018-Apr-17 04:25N 51°54' E 004°20'0 0.0
2018-Apr-17 03:37N 51°54' E 004°20'0 0.0
2018-Apr-17 03:28N 51°54' E 004°20'0 0.0
2018-Apr-17 02:58N 51°54' E 004°20'0 0.0
2018-Apr-17 02:28N 51°54' E 004°20'0 0.0
2018-Apr-17 01:58N 51°54' E 004°20'0 0.0
2018-Apr-17 01:28N 51°54' E 004°20'0 0.0
2018-Apr-17 00:58N 51°54' E 004°20'0 0.0
2018-Apr-17 00:28N 51°54' E 004°20'0 0.0
2018-Apr-16 23:58N 51°54' E 004°20'0 0.0
2018-Apr-16 23:28N 51°54' E 004°20'0 0.0
2018-Apr-16 23:00N 51°54' E 004°20'0 0.6
2018-Apr-16 22:30N 51°53' E 004°21'3 6.3
2018-Apr-16 22:00N 51°54' E 004°16'5 9.2
2018-Apr-16 21:30N 51°57' E 004°10'5 9.1
2018-Apr-16 21:00N 51°59' E 004°04'5 9.5
2018-Apr-16 20:30N 51°60' E 003°56'510.2
2018-Apr-16 20:00N 51°59' E 003°48'4 8.4
2018-Apr-16 19:29N 51°58' E 003°41'4 9.2
2018-Apr-16 19:00N 51°56' E 003°34'3 5.3
2018-Apr-16 18:27N 51°53' E 003°32'0 0.0
2018-Apr-16 17:51N 51°53' E 003°32'0 0.0
2018-Apr-16 17:27N 51°53' E 003°32'0 0.0
2018-Apr-16 17:00N 51°53' E 003°32'0 0.0
2018-Apr-16 16:27N 51°53' E 003°32'0 0.0
2018-Apr-16 15:57N 51°53' E 003°32'0 0.0
2018-Apr-16 15:15N 51°53' E 003°32'0 0.0
2018-Apr-16 14:57N 51°53' E 003°32'0 0.0
2018-Apr-16 14:27N 51°53' E 003°32'0 0.0
2018-Apr-16 13:51N 51°53' E 003°32'0 0.0
2018-Apr-16 13:27N 51°53' E 003°32'0 0.0
2018-Apr-16 13:00N 51°53' E 003°32'0 0.0
2018-Apr-16 12:27N 51°53' E 003°33'0 0.0
2018-Apr-16 11:48N 51°53' E 003°32'0 0.1
2018-Apr-16 11:21N 51°53' E 003°32'0 0.1
2018-Apr-16 10:54N 51°53' E 003°32'0 0.0
2018-Apr-16 04:33N 51°53' E 003°32'0 0.1
2018-Apr-16 03:08N 51°53' E 003°32'2 5.1
2018-Apr-16 02:40N 51°56' E 003°33'311.0
2018-Apr-16 02:26N 51°56' E 003°29'512.7
2018-Apr-16 02:00N 51°54' E 003°20'611.9
2018-Apr-16 01:29N 51°53' E 003°10'23 2.9
2018-Apr-15 17:19N 51°46' E 002°34'310.3
2018-Apr-15 17:00N 51°43' E 002°31'510.5
2018-Apr-15 16:28N 51°38' E 002°26'510.8
2018-Apr-15 16:00N 51°34' E 002°21'611.9
2018-Apr-15 15:30N 51°30' E 002°15'711.8
2018-Apr-15 14:56N 51°23' E 002°11'410.2
2018-Apr-15 14:31N 51°20' E 002°16'510.2
2018-Apr-15 14:00N 51°21' E 002°24'4 8.1
2018-Apr-15 13:30N 51°23' E 002°30'5 9.1
2018-Apr-15 13:00N 51°23' E 002°38'4 9.0
2018-Apr-15 12:30N 51°22' E 002°45'5 9.1
2018-Apr-15 12:00N 51°23' E 002°52'510.5
2018-Apr-15 11:30N 51°24' E 003°00'510.1
2018-Apr-15 11:00N 51°24' E 003°08'510.0
2018-Apr-15 10:30N 51°25' E 003°16'510.8
2018-Apr-15 10:00N 51°25' E 003°25'611.0
2018-Apr-15 09:30N 51°25' E 003°34'4 8.9
2018-Apr-15 09:00N 51°25' E 003°41'611.7
2018-Apr-15 08:29N 51°21' E 003°48'1 2.7
2018-Apr-15 08:01N 51°20' E 003°49'2 3.3
2018-Apr-15 07:31N 51°18' E 003°50'4 7.4
2018-Apr-15 07:01N 51°14' E 003°49'4 7.3
2018-Apr-15 06:31N 51°11' E 003°48'3 6.0
2018-Apr-15 06:00N 51°08' E 003°46'0 0.0
2018-Apr-15 05:30N 51°08' E 003°46'0 0.0
2018-Apr-15 05:00N 51°08' E 003°46'0 0.0
2018-Apr-15 04:30N 51°08' E 003°46'0 0.0
2018-Apr-15 04:00N 51°08' E 003°46'0 0.0
2018-Apr-15 03:30N 51°08' E 003°46'0 0.0
2018-Apr-15 03:00N 51°08' E 003°46'0 0.0
2018-Apr-15 02:30N 51°08' E 003°46'0 0.0
2018-Apr-15 02:00N 51°08' E 003°46'0 0.0
2018-Apr-15 01:30N 51°08' E 003°46'0 0.0
2018-Apr-15 01:00N 51°08' E 003°46'0 0.0
2018-Apr-15 00:30N 51°08' E 003°46'0 0.0
2018-Apr-15 00:00N 51°08' E 003°46'0 0.0
2018-Apr-14 23:30N 51°08' E 003°46'0 0.0
2018-Apr-14 23:00N 51°08' E 003°46'0 0.0
2018-Apr-14 22:30N 51°08' E 003°46'0 0.0
2018-Apr-14 22:00N 51°08' E 003°46'0 0.0
2018-Apr-14 21:30N 51°08' E 003°46'0 0.0
2018-Apr-14 21:00N 51°08' E 003°46'0 0.0
2018-Apr-14 20:30N 51°08' E 003°46'0 0.0
2018-Apr-14 20:00N 51°08' E 003°46'0 0.0
2018-Apr-14 19:30N 51°08' E 003°46'0 0.0
2018-Apr-14 19:00N 51°08' E 003°46'0 0.0
2018-Apr-14 18:30N 51°08' E 003°46'0 0.0
2018-Apr-14 18:00N 51°08' E 003°46'0 0.0
2018-Apr-14 17:30N 51°08' E 003°46'0 0.0
2018-Apr-14 17:00N 51°08' E 003°46'0 0.0
2018-Apr-14 16:30N 51°08' E 003°46'0 0.0
2018-Apr-14 16:00N 51°08' E 003°46'0 0.0
2018-Apr-14 15:30N 51°08' E 003°46'0 0.0
2018-Apr-14 15:00N 51°08' E 003°46'0 0.0
2018-Apr-14 14:30N 51°08' E 003°46'0 0.0
2018-Apr-14 14:00N 51°08' E 003°46'0 0.0
2018-Apr-14 13:30N 51°08' E 003°46'0 0.0
2018-Apr-14 13:00N 51°08' E 003°46'0 0.0
2018-Apr-14 12:30N 51°08' E 003°46'0 0.0
2018-Apr-14 12:00N 51°08' E 003°46'0 0.0
2018-Apr-14 11:30N 51°08' E 003°46'0 0.0
2018-Apr-14 11:00N 51°08' E 003°46'0 0.0
2018-Apr-14 10:30N 51°08' E 003°46'0 0.0
2018-Apr-14 10:00N 51°08' E 003°46'0 0.0
2018-Apr-14 09:30N 51°08' E 003°46'0 0.0
2018-Apr-14 09:00N 51°08' E 003°46'0 0.0
2018-Apr-14 08:30N 51°08' E 003°46'0 0.0
2018-Apr-14 08:00N 51°08' E 003°46'0 0.0
2018-Apr-14 07:30N 51°08' E 003°46'0 0.0
2018-Apr-14 07:00N 51°08' E 003°46'0 0.0
2018-Apr-14 06:30N 51°08' E 003°46'0 0.0
2018-Apr-14 06:00N 51°08' E 003°46'0 0.0
2018-Apr-14 05:30N 51°08' E 003°46'0 0.0
2018-Apr-14 05:00N 51°08' E 003°46'0 0.0
2018-Apr-14 04:30N 51°08' E 003°46'0 0.0
2018-Apr-14 04:00N 51°08' E 003°46'0 0.0
2018-Apr-14 03:30N 51°08' E 003°46'0 0.0
2018-Apr-14 03:00N 51°08' E 003°46'0 0.0
2018-Apr-14 02:30N 51°08' E 003°46'0 0.0
2018-Apr-14 02:00N 51°08' E 003°46'0 0.0
2018-Apr-14 01:30N 51°08' E 003°46'0 0.0
2018-Apr-14 01:00N 51°08' E 003°46'0 0.0
2018-Apr-14 00:30N 51°08' E 003°46'0 0.0
2018-Apr-14 00:00N 51°08' E 003°46'0 0.0
2018-Apr-13 23:30N 51°08' E 003°46'0 0.0
2018-Apr-13 23:00N 51°08' E 003°46'0 0.0
2018-Apr-13 22:30N 51°08' E 003°46'0 0.0
2018-Apr-13 21:59N 51°08' E 003°46'0 0.0
2018-Apr-13 21:30N 51°08' E 003°46'0 0.0
2018-Apr-13 21:00N 51°08' E 003°46'0 0.0
2018-Apr-13 20:30N 51°08' E 003°46'0 0.0
2018-Apr-13 20:00N 51°08' E 003°46'0 0.0
2018-Apr-13 19:30N 51°08' E 003°46'0 0.0
2018-Apr-13 19:00N 51°08' E 003°46'0 0.0
2018-Apr-13 18:27N 51°08' E 003°46'0 0.0
2018-Apr-13 18:00N 51°08' E 003°46'0 0.2
2018-Apr-13 17:30N 51°08' E 003°46'4 8.4
2018-Apr-13 17:00N 51°12' E 003°48'4 8.6
2018-Apr-13 16:30N 51°16' E 003°50'4 7.4
2018-Apr-13 16:01N 51°20' E 003°49'1 0.9
2018-Apr-13 15:00N 51°21' E 003°49'4 8.8
2018-Apr-13 14:30N 51°22' E 003°55'4 7.3
2018-Apr-13 14:00N 51°25' E 003°58'6 6.1
2018-Apr-13 13:00N 51°22' E 004°06'4 8.3
2018-Apr-13 12:30N 51°24' E 004°12'4 8.9
2018-Apr-13 12:00N 51°21' E 004°17'3 1.4
2018-Apr-13 10:00N 51°18' E 004°19'4 3.8
2018-Apr-13 09:00N 51°15' E 004°23'0 0.0
2018-Apr-13 08:30N 51°15' E 004°23'0 0.0
2018-Apr-13 08:00N 51°15' E 004°23'0 0.0
2018-Apr-13 07:30N 51°15' E 004°23'0 0.0
2018-Apr-13 07:00N 51°15' E 004°23'0 0.0
2018-Apr-13 06:30N 51°15' E 004°23'0 0.0
2018-Apr-13 05:57N 51°15' E 004°23'0 0.0
2018-Apr-13 05:30N 51°15' E 004°23'0 0.0
2018-Apr-13 05:00N 51°15' E 004°23'0 0.0
2018-Apr-13 04:27N 51°15' E 004°23'0 0.0
2018-Apr-13 04:00N 51°15' E 004°23'0 0.0
2018-Apr-13 03:30N 51°15' E 004°23'0 0.0
2018-Apr-13 03:00N 51°15' E 004°23'0 0.0
2018-Apr-13 02:30N 51°15' E 004°23'0 0.0
2018-Apr-13 02:00N 51°15' E 004°23'0 0.0
2018-Apr-13 01:30N 51°15' E 004°23'0 0.0
2018-Apr-13 01:00N 51°15' E 004°23'0 0.0
2018-Apr-13 00:30N 51°15' E 004°23'0 0.0
2018-Apr-13 00:00N 51°15' E 004°23'0 0.0
2018-Apr-12 23:30N 51°15' E 004°23'0 0.0
2018-Apr-12 23:00N 51°15' E 004°23'0 0.0
2018-Apr-12 22:30N 51°15' E 004°23'0 0.0
2018-Apr-12 22:00N 51°15' E 004°23'0 0.0
2018-Apr-12 21:30N 51°15' E 004°23'0 0.0
2018-Apr-12 21:00N 51°15' E 004°23'0 0.0
2018-Apr-12 20:30N 51°15' E 004°23'0 0.0
2018-Apr-12 20:00N 51°15' E 004°23'0 0.0
2018-Apr-12 19:30N 51°15' E 004°23'0 0.0
2018-Apr-12 19:00N 51°15' E 004°23'0 0.0
2018-Apr-12 18:30N 51°15' E 004°23'0 0.0
2018-Apr-12 18:00N 51°15' E 004°23'0 0.0
2018-Apr-12 17:30N 51°15' E 004°23'0 0.0
2018-Apr-12 17:00N 51°15' E 004°23'0 0.0
2018-Apr-12 16:30N 51°15' E 004°23'0 0.0
2018-Apr-12 16:00N 51°15' E 004°23'0 0.0
2018-Apr-12 15:30N 51°15' E 004°23'0 0.0
2018-Apr-12 15:00N 51°15' E 004°23'0 0.0
2018-Apr-12 14:30N 51°15' E 004°23'  

Dump ship's entire track history